»·PEaware :: N130F KSBA-KBUR

N130F :: KSBA-KBUR

FLIGHT INFORMATION

Flight Status: Arrived
Operator: Privately registered:
United States
More flights under this callsign
Pilot: David J. (24489)
Aircraft: PIPER PA-24 COMMANCHE
(PA24)
More flights by this aircraft type
Origin: KSBA Santa Barbara Mun
United States
Destination: KBUR Bob Hope-Burbank
United States
More flights between these airports :: More routes between these airports
Route: +
File this flight plan on PilotEdge
Remarks:
Altitude:
(Current/Filed)
0ft
Speed:
(Current/Filed)
0kts
Departed: 02-Jan-20 10:49 PM
Arrived: 02-Jan-20 11:24 PM
Distance/Time
Traveled:
74nm/0:35
Distance/Time
To Go:
Arrived

Flight Plot

Page will automatically refresh every two minutes.


Map Options




Map Legend


Flown Route
Filed Route
Departure Airport
Arrival Airport
Navaid (VOR, NDB)
Fix

Horizontal Profiles

Position Reports

Time Latitude Longitude Heading Altitude Ground
Speed
02-Jan-20 22:40 34.429296 -119.844390 334 13ft 0kts
02-Jan-20 22:41 34.429300 -119.844392 334 13ft 0kts
02-Jan-20 22:42 34.429304 -119.844394 334 13ft 0kts
02-Jan-20 22:43 34.429309 -119.844397 334 13ft 0kts
02-Jan-20 22:44 34.429361 -119.844109 111 13ft 0kts
02-Jan-20 22:45 34.429309 -119.844025 138 13ft 8kts
02-Jan-20 22:46 34.429884 -119.842038 63 13ft 2kts
02-Jan-20 22:47 34.429908 -119.841978 63 13ft 0kts
02-Jan-20 22:48 34.424180 -119.839166 163 60ft 98kts
02-Jan-20 22:49 34.390466 -119.831685 165 1241ft 128kts
02-Jan-20 22:50 34.356306 -119.827231 150 1770ft 109kts
02-Jan-20 22:51 34.351432 -119.796516 68 3048ft 122kts
02-Jan-20 22:52 34.364496 -119.752676 69 3516ft 154kts
02-Jan-20 22:53 34.375579 -119.702147 74 3513ft 155kts
02-Jan-20 22:54 34.384687 -119.650790 75 3508ft 155kts
02-Jan-20 22:55 34.391036 -119.598954 92 3508ft 158kts
02-Jan-20 22:56 34.382943 -119.546224 97 3510ft 157kts
02-Jan-20 22:57 34.375459 -119.495505 96 3511ft 151kts
02-Jan-20 22:58 34.367619 -119.445385 97 3511ft 151kts
02-Jan-20 22:59 34.360436 -119.395401 96 3527ft 151kts
02-Jan-20 23:00 34.353157 -119.345499 98 3527ft 150kts
02-Jan-20 23:01 34.345146 -119.295614 97 3525ft 151kts
02-Jan-20 23:02 34.337756 -119.245386 99 3525ft 151kts
02-Jan-20 23:03 34.329843 -119.195401 98 3523ft 151kts
02-Jan-20 23:04 34.323852 -119.144928 94 3516ft 150kts
02-Jan-20 23:05 34.314142 -119.095091 100 3509ft 152kts
02-Jan-20 23:06 34.308112 -119.044779 91 3504ft 151kts
02-Jan-20 23:07 34.299537 -118.994882 103 3506ft 152kts
02-Jan-20 23:08 34.291621 -118.944855 92 3508ft 151kts
02-Jan-20 23:09 34.284487 -118.894847 101 3514ft 152kts
02-Jan-20 23:10 34.276420 -118.844767 97 3519ft 151kts
02-Jan-20 23:11 34.269464 -118.795116 100 3519ft 149kts
02-Jan-20 23:12 34.261154 -118.746209 97 3521ft 148kts
02-Jan-20 23:13 34.254303 -118.697295 97 3529ft 148kts
02-Jan-20 23:14 34.245905 -118.648681 98 3524ft 148kts
02-Jan-20 23:15 34.238457 -118.599958 104 3587ft 144kts
02-Jan-20 23:16 34.208082 -118.569319 173 3541ft 155kts
02-Jan-20 23:17 34.184479 -118.540510 81 2856ft 150kts
02-Jan-20 23:18 34.184562 -118.494389 81 1815ft 124kts
02-Jan-20 23:19 34.188806 -118.458005 78 1511ft 98kts
02-Jan-20 23:20 34.191665 -118.424335 89 1442ft 105kts
02-Jan-20 23:21 34.195992 -118.392616 80 1105ft 91kts
02-Jan-20 23:22 34.197834 -118.365050 91 730ft 81kts
02-Jan-20 23:23 34.197267 -118.357163 188 724ft 0kts
02-Jan-20 23:24 34.196756 -118.360059 269 724ft 20kts
02-Jan-20 23:25 34.196427 -118.365737 233 724ft 10kts
02-Jan-20 23:26 34.196214 -118.367253 190 724ft 0kts
02-Jan-20 23:27 34.196253 -118.367243 210 724ft 1kts
02-Jan-20 23:28 34.196164 -118.367250 180 724ft 0kts
02-Jan-20 23:29 34.196164 -118.367250 180 724ft 0kts
02-Jan-20 23:30 34.196164 -118.367250 180 724ft 0kts
02-Jan-20 23:31 34.196164 -118.367250 180 724ft 0kts
02-Jan-20 23:32 34.196164 -118.367250 180 724ft 0kts
02-Jan-20 23:33 34.196164 -118.367250 180 724ft 0kts
02-Jan-20 23:34 34.196164 -118.367250 180 724ft 0kts
02-Jan-20 23:35 34.196164 -118.367250 180 724ft 0kts
02-Jan-20 23:36 34.196164 -118.367250 180 724ft 0kts
02-Jan-20 23:37 34.196164 -118.367250 180 724ft 0kts

Navigation Log

Ident Type
Flight plan parsing failed, navigation log unavailable